Time;durP1;ratioP1;P1;durP2;ratioP2;P2;SDS_P1;SDS_P2;PMS_P1;PMS_P2;Temp;Humidity;BMP_temperature;BMP_pressure;BME280_temperature;BME280_humidity;BME280_pressure;Samples;Min_cycle;Max_cycle;Signal;HPM_P1;HPM_P2
2022/03/10 02:12:00;;;;;;;24.80;15.83;;;4.70;99.90;;;;;;4657365;30;20530;-77
2022/03/10 02:45:48;;;;;;;26.67;17.57;;;4.30;99.90;;;;;;4841491;29;20413;-77
2022/03/10 03:28:59;;;;;;;24.00;15.77;;;4.20;99.90;;;;;;4873887;29;20497;-75
2022/03/10 06:07:32;;;;;;;34.47;18.37;;;3.90;99.90;;;;;;4990610;28;20501;-74
2022/03/10 06:09:59;;;;;;;27.90;17.00;;;3.90;99.90;;;;;;4988370;28;20485;-68
2022/03/10 06:12:28;;;;;;;27.57;16.83;;;3.80;99.90;;;;;;5003835;28;20455;-68
2022/03/10 06:14:56;;;;;;;56.97;34.40;;;3.90;99.90;;;;;;5113392;28;20460;-68
2022/03/10 06:17:22;;;;;;;46.90;29.87;;;4.00;99.90;;;;;;5114995;28;20480;-69
2022/03/10 06:19:50;;;;;;;40.27;25.00;;;4.10;99.90;;;;;;5114931;28;20445;-70
2022/03/10 06:22:18;;;;;;;35.80;21.80;;;4.20;99.90;;;;;;5116441;28;20456;-68
2022/03/10 06:24:45;;;;;;;40.80;24.67;;;4.30;99.90;;;;;;5118828;28;20451;-69
2022/03/10 06:27:13;;;;;;;33.00;20.27;;;4.30;99.90;;;;;;5118732;28;20544;-68
2022/03/10 06:29:40;;;;;;;28.43;17.70;;;4.40;99.90;;;;;;5118030;28;20966;-68
2022/03/10 06:32:07;;;;;;;36.33;19.90;;;4.40;99.90;;;;;;5118261;28;20452;-69
2022/03/10 06:34:34;;;;;;;32.53;19.10;;;4.40;99.90;;;;;;5118485;28;20467;-69
2022/03/10 06:37:02;;;;;;;34.30;18.77;;;4.40;99.90;;;;;;5118459;28;20452;-69
2022/03/10 06:39:29;;;;;;;24.90;17.10;;;4.40;99.90;;;;;;5117892;28;20451;-70
2022/03/10 06:41:56;;;;;;;32.93;19.23;;;4.40;99.90;;;;;;5118057;28;20456;-70
2022/03/10 06:44:23;;;;;;;28.87;18.63;;;4.40;99.90;;;;;;5117871;28;20495;-70
2022/03/10 06:46:49;;;;;;;31.67;18.90;;;4.40;99.90;;;;;;5117749;28;20456;-71
2022/03/10 06:49:16;;;;;;;36.37;19.17;;;4.40;99.90;;;;;;5117357;28;20472;-69
2022/03/10 06:51:43;;;;;;;37.77;20.07;;;4.40;99.90;;;;;;5118096;28;20570;-69
2022/03/10 06:54:11;;;;;;;36.20;19.40;;;4.40;99.90;;;;;;5118243;28;20533;-69
2022/03/10 06:56:38;;;;;;;35.50;19.30;;;4.40;99.90;;;;;;5117968;28;20452;-70
2022/03/10 06:59:05;;;;;;;34.60;19.10;;;4.50;99.90;;;;;;5117803;28;20456;-69
2022/03/10 07:01:34;;;;;;;33.90;20.30;;;4.50;99.90;;;;;;5117873;28;20464;-69
2022/03/10 07:04:01;;;;;;;34.10;19.80;;;4.50;99.90;;;;;;5117569;28;20445;-68
2022/03/10 07:06:28;;;;;;;33.17;19.23;;;4.60;99.90;;;;;;5118158;28;20463;-69
2022/03/10 07:08:55;;;;;;;32.03;19.67;;;4.50;99.90;;;;;;5120736;28;20570;-69
2022/03/10 07:11:23;;;;;;;30.23;18.50;;;4.50;99.90;;;;;;5118856;28;20456;-69
2022/03/10 07:13:50;;;;;;;31.57;19.27;;;4.60;99.90;;;;;;5117429;28;20559;-69
2022/03/10 07:16:16;;;;;;;33.37;20.13;;;4.70;99.90;;;;;;5117096;28;20460;-68
2022/03/10 07:18:43;;;;;;;41.70;27.17;;;4.70;99.90;;;;;;5117425;28;20460;-68
2022/03/10 07:21:10;;;;;;;35.00;21.47;;;4.80;99.90;;;;;;5117744;28;20463;-69
2022/03/10 07:23:36;;;;;;;38.13;20.97;;;4.90;99.90;;;;;;5117327;28;20536;-68
2022/03/10 07:26:03;;;;;;;30.87;19.77;;;5.00;99.90;;;;;;5116827;28;20464;-68
2022/03/10 07:28:33;;;;;;;41.53;24.60;;;5.00;99.90;;;;;;5117279;28;20456;-67
2022/03/10 07:30:59;;;;;;;41.53;23.97;;;5.10;99.90;;;;;;5117239;28;20452;-68
2022/03/10 07:33:26;;;;;;;35.23;21.63;;;5.20;99.90;;;;;;5116468;28;20517;-68
2022/03/10 07:35:53;;;;;;;36.90;20.43;;;5.40;99.90;;;;;;5117084;28;20456;-69
2022/03/10 07:38:20;;;;;;;30.73;17.83;;;5.40;99.90;;;;;;5117068;28;20490;-69
2022/03/10 07:40:46;;;;;;;27.77;18.00;;;5.50;99.90;;;;;;5116777;28;20457;-68
2022/03/10 07:43:13;;;;;;;34.00;20.40;;;5.50;99.90;;;;;;5116809;28;20513;-69
2022/03/10 07:45:41;;;;;;;25.33;16.97;;;5.60;99.90;;;;;;5117186;28;20462;-69
2022/03/10 07:48:08;;;;;;;31.63;19.30;;;5.60;99.90;;;;;;5117117;28;20490;-68
2022/03/10 07:50:35;;;;;;;31.00;18.30;;;5.70;99.90;;;;;;5116763;28;20476;-68
2022/03/10 07:53:02;;;;;;;34.17;17.80;;;5.70;99.90;;;;;;5116930;28;20467;-68
2022/03/10 07:55:28;;;;;;;43.20;21.10;;;5.70;99.90;;;;;;5116742;28;20456;-68
2022/03/10 07:57:55;;;;;;;30.70;19.37;;;5.80;99.90;;;;;;5116194;28;20464;-69
2022/03/10 08:00:22;;;;;;;28.70;19.67;;;5.80;99.90;;;;;;5117351;28;20765;-68
2022/03/10 08:02:50;;;;;;;22.30;15.90;;;5.70;99.90;;;;;;5117443;28;20464;-68
2022/03/10 08:05:17;;;;;;;25.87;18.27;;;5.70;99.90;;;;;;5116368;28;20540;-68
2022/03/10 08:07:44;;;;;;;37.40;19.40;;;5.80;99.90;;;;;;5116485;28;20468;-68
2022/03/10 08:10:12;;;;;;;34.10;20.60;;;5.70;99.90;;;;;;5116160;28;20488;-68
2022/03/10 08:12:39;;;;;;;36.93;19.47;;;5.80;99.90;;;;;;5116613;28;20521;-69
2022/03/10 08:15:07;;;;;;;31.20;19.77;;;5.80;99.90;;;;;;5116374;28;20859;-68
2022/03/10 08:17:34;;;;;;;33.70;20.57;;;5.90;99.90;;;;;;5116153;28;20465;-68
2022/03/10 08:20:02;;;;;;;32.13;20.40;;;6.00;99.90;;;;;;5116125;28;20551;-69
2022/03/10 08:22:29;;;;;;;33.93;19.90;;;6.00;99.90;;;;;;5116014;28;20792;-68
2022/03/10 08:24:56;;;;;;;32.80;19.60;;;6.10;99.90;;;;;;5116367;28;20933;-69
2022/03/10 08:27:22;;;;;;;37.60;24.13;;;6.10;99.90;;;;;;5116082;28;20526;-69
2022/03/10 08:29:49;;;;;;;50.43;31.23;;;6.10;99.90;;;;;;5116015;28;20556;-68
2022/03/10 08:32:16;;;;;;;33.10;20.03;;;6.20;99.90;;;;;;5116026;28;20521;-69
2022/03/10 08:34:43;;;;;;;32.07;19.40;;;6.30;99.90;;;;;;5116087;28;20779;-69
2022/03/10 08:37:11;;;;;;;32.33;19.17;;;6.40;99.90;;;;;;5115530;28;20525;-68
2022/03/10 08:39:37;;;;;;;41.03;19.23;;;6.40;99.90;;;;;;5115649;28;20453;-68
2022/03/10 08:42:05;;;;;;;30.40;18.37;;;6.50;99.90;;;;;;5115831;28;20448;-68
2022/03/10 08:44:31;;;;;;;32.63;19.70;;;6.50;99.90;;;;;;5115218;28;20459;-69
2022/03/10 08:46:58;;;;;;;180.63;91.37;;;6.60;99.90;;;;;;5114018;28;20453;-69
2022/03/10 08:49:25;;;;;;;37.13;22.50;;;6.70;99.90;;;;;;5115436;28;20484;-68
2022/03/10 08:51:51;;;;;;;30.70;20.17;;;6.70;99.90;;;;;;5115237;28;20488;-68
2022/03/10 08:54:19;;;;;;;32.47;18.60;;;6.70;99.90;;;;;;5115310;28;20456;-68
2022/03/10 08:56:46;;;;;;;35.23;19.60;;;6.80;99.90;;;;;;5115297;28;20468;-69
2022/03/10 08:59:13;;;;;;;34.47;19.57;;;6.90;99.90;;;;;;5115169;28;20478;-69
2022/03/10 09:01:43;;;;;;;25.20;17.33;;;6.90;99.90;;;;;;5115243;28;20487;-69
2022/03/10 09:04:09;;;;;;;34.37;19.30;;;7.00;99.90;;;;;;5115054;28;20794;-72
2022/03/10 09:06:36;;;;;;;41.70;23.07;;;7.10;99.90;;;;;;5115047;28;20456;-71
2022/03/10 09:09:04;;;;;;;33.70;20.50;;;7.10;99.90;;;;;;5115300;28;20453;-70
2022/03/10 09:11:33;;;;;;;31.50;20.20;;;7.20;99.90;;;;;;5115582;28;20457;-68
2022/03/10 09:13:59;;;;;;;29.77;19.77;;;7.30;99.90;;;;;;5115181;28;20456;-68
2022/03/10 09:16:26;;;;;;;36.07;20.00;;;7.40;99.90;;;;;;5115119;28;20464;-67
2022/03/10 09:18:53;;;;;;;29.03;19.10;;;7.40;99.90;;;;;;5115191;28;20453;-69
2022/03/10 09:21:20;;;;;;;33.63;19.57;;;7.50;99.90;;;;;;5114537;28;20449;-68
2022/03/10 09:23:47;;;;;;;29.10;18.80;;;7.50;99.90;;;;;;5115293;28;20456;-68
2022/03/10 09:26:15;;;;;;;32.90;18.83;;;7.60;99.90;;;;;;5114939;28;20456;-68
2022/03/10 09:28:43;;;;;;;26.93;18.47;;;7.60;99.90;;;;;;5114795;28;20803;-68
2022/03/10 09:31:12;;;;;;;31.17;19.13;;;7.70;99.90;;;;;;5114530;28;20809;-68
2022/03/10 09:33:39;;;;;;;28.67;18.30;;;7.80;99.90;;;;;;5114761;28;20452;-68
2022/03/10 09:36:06;;;;;;;30.00;20.40;;;7.80;99.90;;;;;;5114655;28;20874;-69
2022/03/10 09:38:32;;;;;;;51.00;33.77;;;7.90;99.90;;;;;;5114702;28;20824;-69
2022/03/10 09:40:59;;;;;;;38.93;23.13;;;8.00;99.90;;;;;;5114419;28;20456;-69
2022/03/10 09:43:28;;;;;;;30.10;19.93;;;8.10;99.90;;;;;;5114132;28;20525;-68
2022/03/10 09:45:57;;;;;;;30.93;18.77;;;8.20;99.90;;;;;;5114475;28;20528;-69
2022/03/10 09:48:24;;;;;;;29.43;18.53;;;8.30;99.90;;;;;;5114659;28;20448;-68
2022/03/10 09:50:51;;;;;;;31.07;17.60;;;8.40;99.90;;;;;;5116981;28;20496;-70
2022/03/10 09:53:27;;;;;;;27.30;17.10;;;8.40;99.90;;;;;;5115162;28;20447;-67
2022/03/10 09:55:55;;;;;;;28.63;18.90;;;8.50;99.90;;;;;;5114544;28;20455;-69
2022/03/10 09:58:22;;;;;;;25.63;17.60;;;8.70;99.90;;;;;;5114117;28;20521;-70
2022/03/10 10:00:49;;;;;;;26.17;18.93;;;8.80;99.90;;;;;;5114178;28;20444;-70
2022/03/10 10:03:18;;;;;;;27.60;18.80;;;8.80;99.90;;;;;;5114664;28;20460;-70
2022/03/10 10:05:45;;;;;;;45.13;28.00;;;8.90;99.90;;;;;;5114460;28;20467;-70
2022/03/10 10:08:17;;;;;;;35.90;20.00;;;9.00;99.90;;;;;;5114331;28;20482;-69
2022/03/10 10:10:46;;;;;;;33.40;18.13;;;9.00;99.90;;;;;;5114214;28;20460;-70
2022/03/10 10:13:25;;;;;;;27.67;18.00;;;9.00;99.90;;;;;;5114548;28;20902;-69
2022/03/10 10:15:55;;;;;;;23.10;16.80;;;9.00;99.90;;;;;;5114160;28;20539;-70
2022/03/10 10:18:24;;;;;;;25.10;17.10;;;9.00;99.90;;;;;;5114704;28;20520;-69
2022/03/10 10:20:52;;;;;;;28.10;18.37;;;9.10;99.90;;;;;;5114076;28;20459;-70
2022/03/10 10:23:25;;;;;;;30.40;20.00;;;9.10;99.90;;;;;;5114327;28;20469;-70
2022/03/10 10:25:57;;;;;;;40.93;25.80;;;9.20;99.90;;;;;;5114405;28;20913;-68
2022/03/10 10:28:29;;;;;;;30.23;18.23;;;9.30;99.90;;;;;;5114141;28;20443;-69
2022/03/10 10:30:58;;;;;;;23.67;15.17;;;9.30;99.90;;;;;;5114545;28;20469;-69
2022/03/10 10:33:27;;;;;;;28.47;19.40;;;9.40;99.90;;;;;;5115095;28;20452;-69
2022/03/10 10:36:13;;;;;;;29.80;18.73;;;9.50;99.90;;;;;;5117473;28;20953;-71
2022/03/10 10:38:41;;;;;;;27.00;18.23;;;9.60;99.90;;;;;;5119819;28;20432;-68
2022/03/10 10:41:22;;;;;;;27.53;18.03;;;9.70;99.90;;;;;;5116252;28;20513;-70
2022/03/10 10:43:52;;;;;;;21.33;15.90;;;9.90;99.90;;;;;;5115344;28;20441;-71
2022/03/10 10:46:29;;;;;;;31.57;18.20;;;10.00;99.90;;;;;;5115235;28;20453;-71
2022/03/10 10:48:59;;;;;;;20.30;15.97;;;10.20;99.90;;;;;;5114209;28;20535;-69
2022/03/10 10:51:29;;;;;;;30.33;16.90;;;10.30;99.90;;;;;;5113819;28;20488;-70
2022/03/10 10:53:56;;;;;;;21.47;15.80;;;10.40;99.90;;;;;;5113755;28;20452;-70
2022/03/10 10:56:23;;;;;;;26.67;16.87;;;10.40;99.90;;;;;;5113972;28;20840;-69
2022/03/10 10:58:52;;;;;;;24.40;16.80;;;10.50;99.90;;;;;;5113959;28;20475;-68
2022/03/10 11:01:33;;;;;;;24.97;16.50;;;10.50;99.90;;;;;;5114079;28;20527;-67
2022/03/10 11:04:04;;;;;;;26.10;16.87;;;10.50;99.90;;;;;;5113978;28;20831;-68
2022/03/10 11:06:31;;;;;;;23.30;17.17;;;10.60;99.90;;;;;;5113631;28;20445;-68
2022/03/10 11:08:58;;;;;;;24.30;15.80;;;10.60;99.90;;;;;;5114711;28;20840;-67
2022/03/10 11:11:31;;;;;;;20.60;15.83;;;10.70;99.90;;;;;;5117416;28;20976;-68
2022/03/10 11:13:58;;;;;;;26.73;17.93;;;10.90;99.90;;;;;;5117868;28;20521;-70
2022/03/10 11:16:26;;;;;;;22.93;14.97;;;11.00;99.90;;;;;;5117255;28;20463;-70
2022/03/10 11:18:54;;;;;;;24.30;15.90;;;11.10;99.90;;;;;;5117459;28;20526;-70
2022/03/10 11:22:04;;;;;;;21.73;17.10;;;11.20;99.90;;;;;;5117220;28;20791;-70
2022/03/10 11:24:49;;;;;;;30.10;18.07;;;11.40;99.90;;;;;;5035034;28;20456;-68
2022/03/10 11:27:21;;;;;;;22.23;17.40;;;11.60;99.90;;;;;;5107596;28;20464;-69
2022/03/10 11:29:53;;;;;;;25.40;19.10;;;11.70;99.90;;;;;;5117372;28;20468;-69
2022/03/10 11:32:27;;;;;;;40.40;28.67;;;11.80;99.90;;;;;;5118030;28;20440;-69
2022/03/10 11:34:55;;;;;;;20.00;15.30;;;11.90;99.90;;;;;;5117886;28;20524;-68
2022/03/10 11:37:53;;;;;;;18.67;14.67;;;12.00;99.90;;;;;;5119155;28;20456;-69
2022/03/10 11:40:36;;;;;;;21.20;14.67;;;12.20;99.90;;;;;;5117912;28;20524;-68
2022/03/10 11:43:03;;;;;;;17.67;13.90;;;12.20;99.90;;;;;;5118977;28;20463;-68
2022/03/10 11:45:32;;;;;;;20.00;13.23;;;12.10;99.90;;;;;;5117816;28;20456;-68
2022/03/10 11:48:31;;;;;;;21.73;16.10;;;12.00;99.90;;;;;;5117424;28;20441;-69
2022/03/10 11:50:58;;;;;;;20.60;13.20;;;12.10;99.90;;;;;;5116857;28;20938;-68
2022/03/10 11:53:26;;;;;;;18.93;14.07;;;12.10;99.90;;;;;;5116225;28;20448;-69
2022/03/10 11:55:54;;;;;;;15.93;13.20;;;12.10;99.90;;;;;;5116095;28;20461;-70
2022/03/10 11:58:30;;;;;;;27.00;15.63;;;12.10;99.90;;;;;;5116384;28;20479;-70
2022/03/10 12:00:58;;;;;;;18.63;13.73;;;12.10;99.90;;;;;;5116317;28;20747;-70
2022/03/10 12:03:29;;;;;;;15.37;12.10;;;12.30;99.90;;;;;;5116237;28;20465;-70
2022/03/10 12:05:58;;;;;;;16.60;12.73;;;12.40;99.90;;;;;;5115993;28;20492;-70
2022/03/10 12:08:29;;;;;;;17.20;12.63;;;12.80;99.90;;;;;;5116372;28;20558;-69
2022/03/10 12:10:56;;;;;;;15.37;12.20;;;13.40;99.90;;;;;;5115717;28;20505;-69
2022/03/10 12:13:34;;;;;;;13.10;11.73;;;14.50;99.90;;;;;;5116214;28;20452;-69
2022/03/10 12:16:03;;;;;;;15.73;11.70;;;15.70;99.90;;;;;;5115837;28;20436;-70
2022/03/10 12:18:32;;;;;;;14.27;11.73;;;16.80;97.60;;;;;;5115953;28;20470;-69
2022/03/10 12:20:59;;;;;;;12.37;10.30;;;17.60;91.60;;;;;;5115254;28;20463;-70
2022/03/10 12:23:31;;;;;;;14.60;11.00;;;18.20;82.50;;;;;;5116071;28;20476;-70
2022/03/10 12:26:05;;;;;;;13.40;10.40;;;18.70;72.00;;;;;;5115488;28;20448;-70
2022/03/10 12:28:34;;;;;;;15.53;11.03;;;18.90;71.40;;;;;;5116113;28;20459;-70
2022/03/10 12:31:23;;;;;;;13.00;10.60;;;19.20;65.00;;;;;;5115961;28;20541;-70
2022/03/10 12:33:52;;;;;;;11.17;10.00;;;19.50;58.30;;;;;;5110342;28;20463;-70
2022/03/10 12:36:31;;;;;;;13.13;10.70;;;19.40;56.20;;;;;;5115389;28;20736;-71
2022/03/10 12:39:02;;;;;;;14.43;10.80;;;19.80;55.10;;;;;;5116053;28;20448;-71
2022/03/10 12:41:32;;;;;;;16.53;12.60;;;20.10;53.10;;;;;;5115883;28;20466;-70
2022/03/10 12:44:01;;;;;;;13.47;12.03;;;20.60;51.10;;;;;;5115462;28;20479;-71
2022/03/10 12:46:29;;;;;;;18.00;12.87;;;20.60;50.20;;;;;;5115416;28;20531;-71
2022/03/10 12:49:02;;;;;;;13.13;11.80;;;20.80;48.60;;;;;;5115334;28;20506;-71
2022/03/10 12:51:30;;;;;;;15.47;11.20;;;20.70;47.70;;;;;;5114773;28;20489;-71
2022/03/10 12:54:00;;;;;;;13.93;10.60;;;20.50;46.30;;;;;;5115092;28;20824;-69
2022/03/10 12:56:28;;;;;;;13.33;11.53;;;20.80;45.90;;;;;;5115284;28;20851;-70
2022/03/10 12:58:56;;;;;;;15.80;12.20;;;20.80;45.20;;;;;;5115565;28;20457;-71
2022/03/10 13:01:23;;;;;;;13.87;11.17;;;20.40;44.10;;;;;;5114898;28;20456;-70
2022/03/10 13:03:52;;;;;;;13.23;11.43;;;20.40;44.40;;;;;;5115118;28;20448;-70
2022/03/10 13:06:22;;;;;;;13.67;11.97;;;20.50;44.00;;;;;;5115233;28;20452;-70
2022/03/10 13:08:53;;;;;;;13.83;12.27;;;20.40;44.50;;;;;;5115662;28;20460;-71
2022/03/10 13:11:25;;;;;;;15.23;12.80;;;20.90;43.30;;;;;;5114938;28;20483;-71
2022/03/10 13:14:07;;;;;;;14.43;12.07;;;21.10;42.00;;;;;;5114632;28;20480;-71
2022/03/10 13:16:35;;;;;;;14.20;12.80;;;20.30;42.70;;;;;;5114833;28;20492;-70
2022/03/10 13:19:02;;;;;;;13.00;11.70;;;20.30;42.80;;;;;;5114937;28;20775;-70
2022/03/10 13:21:29;;;;;;;15.13;12.70;;;20.80;43.00;;;;;;5114712;28;20452;-70
2022/03/10 13:23:56;;;;;;;14.10;12.23;;;21.40;41.30;;;;;;5114991;28;20551;-71
2022/03/10 13:26:25;;;;;;;16.10;13.40;;;21.20;40.20;;;;;;5115234;28;20448;-70
2022/03/10 13:28:53;;;;;;;14.63;12.40;;;21.00;39.70;;;;;;5114929;28;20490;-71
2022/03/10 13:31:26;;;;;;;13.50;12.10;;;20.80;39.90;;;;;;5114089;28;20487;-70
2022/03/10 13:33:54;;;;;;;14.30;12.17;;;21.20;39.10;;;;;;5114827;28;20515;-70
2022/03/10 13:36:20;;;;;;;14.20;12.30;;;21.30;39.00;;;;;;5114628;28;20467;-70
2022/03/10 13:38:53;;;;;;;14.07;12.23;;;21.30;37.50;;;;;;5115024;28;20472;-71
2022/03/10 13:41:20;;;;;;;13.20;11.77;;;20.70;37.20;;;;;;5114681;28;20453;-71
2022/03/10 13:43:48;;;;;;;17.90;11.80;;;20.50;37.40;;;;;;5115069;28;20452;-70
2022/03/10 13:46:17;;;;;;;14.13;11.50;;;20.60;37.90;;;;;;5114641;28;20459;-69
2022/03/10 13:48:46;;;;;;;17.00;14.60;;;20.90;37.10;;;;;;5116072;28;20517;-69
2022/03/10 13:51:13;;;;;;;13.10;11.77;;;21.00;36.10;;;;;;5117373;28;20491;-69
2022/03/10 13:53:52;;;;;;;11.67;10.40;;;21.10;36.50;;;;;;5117714;28;20898;-68
2022/03/10 13:56:19;;;;;;;13.43;12.00;;;21.70;36.80;;;;;;5117014;28;20762;-69
2022/03/10 13:58:45;;;;;;;11.87;10.67;;;22.60;35.60;;;;;;5115362;28;20798;-69
2022/03/10 14:01:14;;;;;;;11.70;10.50;;;22.80;33.20;;;;;;5114773;28;20475;-68
2022/03/10 14:03:42;;;;;;;11.90;10.70;;;22.60;33.10;;;;;;5114362;28;20472;-69
2022/03/10 14:06:16;;;;;;;14.90;10.90;;;22.20;32.60;;;;;;5114519;28;20492;-70
2022/03/10 14:08:47;;;;;;;12.57;10.93;;;21.80;32.60;;;;;;5114567;28;20443;-69
2022/03/10 14:11:14;;;;;;;11.70;10.47;;;21.70;31.90;;;;;;5114058;28;20472;-69
2022/03/10 14:13:43;;;;;;;13.13;11.60;;;21.60;31.80;;;;;;5114493;28;20467;-69
2022/03/10 14:16:16;;;;;;;12.03;10.73;;;21.40;32.30;;;;;;5114258;28;20535;-69
2022/03/10 14:18:46;;;;;;;13.70;11.70;;;21.70;32.20;;;;;;5114578;28;20447;-69
2022/03/10 14:21:14;;;;;;;14.03;10.00;;;21.90;31.60;;;;;;5113842;28;20895;-69
2022/03/10 14:23:40;;;;;;;12.30;10.93;;;21.70;31.40;;;;;;5114462;28;20467;-69
2022/03/10 14:26:14;;;;;;;12.10;10.80;;;21.50;31.10;;;;;;5114112;28;20452;-69
2022/03/10 14:28:42;;;;;;;10.83;9.83;;;21.60;31.30;;;;;;5114785;28;20462;-69
2022/03/10 14:31:11;;;;;;;11.37;10.23;;;22.00;31.70;;;;;;5113579;28;20479;-69
2022/03/10 14:33:39;;;;;;;11.50;10.30;;;22.10;30.00;;;;;;5114386;28;20808;-69
2022/03/10 14:36:09;;;;;;;11.30;10.10;;;21.30;30.50;;;;;;5114672;28;20456;-71
2022/03/10 14:38:40;;;;;;;13.93;10.13;;;20.60;31.20;;;;;;5114299;28;20460;-69
2022/03/10 14:41:08;;;;;;;11.20;10.10;;;20.30;31.20;;;;;;5113980;28;20440;-69
2022/03/10 14:43:35;;;;;;;11.60;9.57;;;20.30;31.80;;;;;;5114847;28;20523;-68
2022/03/10 14:46:02;;;;;;;10.63;9.53;;;20.50;31.60;;;;;;5118481;28;20856;-69
2022/03/10 14:48:29;;;;;;;10.70;9.60;;;20.40;31.80;;;;;;5118468;28;20452;-69
2022/03/10 14:50:58;;;;;;;11.53;9.67;;;20.40;31.10;;;;;;5117344;28;20480;-70
2022/03/10 14:53:24;;;;;;;10.50;8.67;;;20.30;31.00;;;;;;5117636;28;20456;-69
2022/03/10 14:55:51;;;;;;;10.43;9.33;;;20.60;30.60;;;;;;5117554;28;20460;-69
2022/03/10 14:58:18;;;;;;;9.47;8.47;;;20.50;30.90;;;;;;5117524;28;20466;-68
2022/03/10 15:00:45;;;;;;;12.37;10.80;;;20.90;30.60;;;;;;5117262;28;20483;-69
2022/03/10 15:03:12;;;;;;;9.57;8.67;;;21.00;30.40;;;;;;5117971;28;20460;-68
2022/03/10 15:05:39;;;;;;;8.80;7.97;;;21.00;30.30;;;;;;5117625;28;20474;-68
2022/03/10 15:08:07;;;;;;;11.70;8.40;;;21.40;30.20;;;;;;5117236;28;20467;-69
2022/03/10 15:10:35;;;;;;;10.93;9.10;;;22.10;29.90;;;;;;5117452;28;20460;-69
2022/03/10 15:13:02;;;;;;;10.57;8.07;;;22.70;29.00;;;;;;5117434;28;20476;-69
2022/03/10 15:15:31;;;;;;;8.37;7.47;;;22.40;28.20;;;;;;5117635;28;20470;-70
2022/03/10 15:17:57;;;;;;;11.53;8.13;;;22.00;28.40;;;;;;5117155;28;20825;-69
2022/03/10 15:20:24;;;;;;;8.40;7.60;;;21.80;28.50;;;;;;5117182;28;20475;-69
2022/03/10 15:22:58;;;;;;;8.70;7.80;;;22.00;28.40;;;;;;5116880;28;20448;-70
2022/03/10 15:25:27;;;;;;;8.83;7.93;;;21.70;28.20;;;;;;5117234;28;20440;-70
2022/03/10 15:27:56;;;;;;;9.20;8.23;;;21.10;28.00;;;;;;5117007;28;20453;-69
2022/03/10 15:30:23;;;;;;;8.77;7.83;;;20.40;29.10;;;;;;5116743;28;20529;-70
2022/03/10 15:32:50;;;;;;;10.93;8.60;;;20.30;28.70;;;;;;5116645;28;20480;-69
2022/03/10 15:35:19;;;;;;;18.80;14.10;;;20.00;28.50;;;;;;5116834;28;20459;-69
2022/03/10 15:37:48;;;;;;;15.83;11.63;;;19.70;29.00;;;;;;5116700;28;20452;-69
2022/03/10 15:40:16;;;;;;;10.07;8.40;;;19.70;28.80;;;;;;5116687;28;20763;-69
2022/03/10 15:42:44;;;;;;;17.67;9.73;;;19.90;28.50;;;;;;5116900;28;20794;-69
2022/03/10 15:45:13;;;;;;;9.37;8.30;;;19.90;28.10;;;;;;5116592;28;20455;-69
2022/03/10 15:47:40;;;;;;;7.60;6.90;;;19.80;27.20;;;;;;5116432;28;20457;-69
2022/03/10 15:50:08;;;;;;;8.17;7.33;;;19.50;27.50;;;;;;5116649;28;20453;-69
2022/03/10 15:52:35;;;;;;;9.70;8.20;;;19.10;26.40;;;;;;5116283;28;20800;-69
2022/03/10 15:55:03;;;;;;;8.00;7.20;;;18.60;26.40;;;;;;5115778;28;20821;-70
2022/03/10 15:57:30;;;;;;;8.80;7.23;;;18.20;26.50;;;;;;5116406;28;20471;-70
2022/03/10 15:59:59;;;;;;;7.57;6.77;;;18.00;26.90;;;;;;5116881;28;20842;-69
2022/03/10 16:02:26;;;;;;;9.97;7.50;;;17.80;27.10;;;;;;5116674;28;20448;-69
2022/03/10 16:04:53;;;;;;;9.67;7.70;;;17.80;27.20;;;;;;5116486;28;20464;-69
2022/03/10 16:07:20;;;;;;;9.77;8.07;;;17.90;27.20;;;;;;5116221;28;20456;-69
2022/03/10 16:09:47;;;;;;;8.70;7.80;;;17.80;27.30;;;;;;5116499;28;20924;-70
2022/03/10 16:12:14;;;;;;;10.23;8.70;;;17.70;27.20;;;;;;5116239;28;20541;-70
2022/03/10 16:14:41;;;;;;;19.90;15.37;;;17.60;26.80;;;;;;5116232;28;20452;-70
2022/03/10 16:17:10;;;;;;;9.50;8.50;;;17.10;27.20;;;;;;5116023;28;20488;-70
2022/03/10 16:19:37;;;;;;;10.40;7.83;;;16.70;27.70;;;;;;5115720;28;20452;-70
2022/03/10 16:22:04;;;;;;;9.27;8.33;;;16.40;27.70;;;;;;5115902;28;20530;-70
2022/03/10 16:24:31;;;;;;;9.30;7.70;;;16.40;27.80;;;;;;5115857;28;20468;-70
2022/03/10 16:26:59;;;;;;;9.87;8.53;;;16.10;27.90;;;;;;5115911;28;20467;-71
2022/03/10 16:29:29;;;;;;;10.80;8.67;;;15.60;28.40;;;;;;5115921;28;20480;-70
2022/03/10 16:31:57;;;;;;;11.47;8.67;;;15.30;28.70;;;;;;5115744;28;20472;-71
2022/03/10 16:34:26;;;;;;;11.80;9.37;;;14.80;29.20;;;;;;5115915;28;20517;-71
2022/03/10 16:36:52;;;;;;;12.60;9.00;;;14.30;29.90;;;;;;5115957;28;20460;-70
2022/03/10 16:39:20;;;;;;;11.73;9.70;;;13.70;30.10;;;;;;5115821;28;20770;-71
2022/03/10 16:41:47;;;;;;;11.00;8.90;;;13.20;30.90;;;;;;5115373;28;20911;-70
2022/03/10 16:44:15;;;;;;;11.13;8.53;;;12.70;31.70;;;;;;5115116;28;20468;-71
2022/03/10 16:46:42;;;;;;;10.77;9.10;;;12.30;32.60;;;;;;5115704;28;20788;-71
2022/03/10 16:49:10;;;;;;;19.23;9.93;;;11.90;33.30;;;;;;5115125;28;20456;-70
2022/03/10 16:51:41;;;;;;;16.57;11.10;;;11.60;34.10;;;;;;5115272;28;20476;-70
2022/03/10 16:54:11;;;;;;;12.33;10.30;;;11.40;35.30;;;;;;5115787;28;20456;-70
2022/03/10 16:56:38;;;;;;;13.90;9.87;;;11.20;34.70;;;;;;5115297;28;20456;-71
2022/03/10 16:59:07;;;;;;;13.23;9.90;;;11.00;35.30;;;;;;5115796;28;20452;-71
2022/03/10 17:01:35;;;;;;;10.57;9.47;;;10.80;35.50;;;;;;5116427;28;20461;-71
2022/03/10 17:04:03;;;;;;;12.93;9.67;;;10.60;35.60;;;;;;5115610;28;20853;-72
2022/03/10 17:06:30;;;;;;;13.00;9.83;;;10.50;35.90;;;;;;5114464;28;20518;-71
2022/03/10 17:08:58;;;;;;;12.73;10.03;;;10.40;36.20;;;;;;5114963;28;20522;-73
2022/03/10 17:11:25;;;;;;;11.43;8.70;;;10.40;36.50;;;;;;5114961;28;20472;-71
2022/03/10 17:13:51;;;;;;;13.23;9.93;;;10.30;36.40;;;;;;5115077;28;20728;-71
2022/03/10 17:16:18;;;;;;;12.73;9.80;;;10.20;36.50;;;;;;5115484;28;20463;-70
2022/03/10 17:18:45;;;;;;;15.13;10.60;;;10.00;36.40;;;;;;5114734;28;20547;-69
2022/03/10 17:21:15;;;;;;;13.40;9.37;;;9.90;37.40;;;;;;5115070;28;20468;-70
2022/03/10 17:23:42;;;;;;;13.00;9.47;;;9.70;37.70;;;;;;5114500;28;20547;-72
2022/03/10 17:26:10;;;;;;;10.80;8.20;;;9.60;37.70;;;;;;5114501;28;20467;-71
2022/03/10 17:28:37;;;;;;;11.70;9.20;;;9.50;37.30;;;;;;5114603;28;20463;-71
2022/03/10 17:31:04;;;;;;;11.00;8.43;;;9.50;37.50;;;;;;5115078;28;20467;-70
2022/03/10 17:33:31;;;;;;;10.00;7.63;;;9.40;37.50;;;;;;5114509;28;20826;-70
2022/03/10 17:35:58;;;;;;;11.23;7.90;;;9.30;37.60;;;;;;5114552;28;20456;-71
2022/03/10 17:38:25;;;;;;;9.87;7.50;;;9.20;37.10;;;;;;5114474;28;20448;-70
2022/03/10 17:40:52;;;;;;;14.07;7.60;;;9.20;37.20;;;;;;5114257;28;20796;-70
2022/03/10 17:43:22;;;;;;;9.53;7.73;;;9.10;37.20;;;;;;5114823;28;20453;-70
2022/03/10 17:45:49;;;;;;;10.10;6.90;;;9.00;36.90;;;;;;5114590;28;20460;-71
2022/03/10 17:48:15;;;;;;;10.80;6.97;;;8.90;37.20;;;;;;5114104;28;20453;-70
2022/03/10 17:50:42;;;;;;;11.80;6.80;;;8.90;37.10;;;;;;5114413;28;20930;-71
2022/03/10 17:53:09;;;;;;;10.13;6.53;;;8.80;37.10;;;;;;5115277;28;20468;-71
2022/03/10 17:55:36;;;;;;;12.73;8.77;;;8.70;36.80;;;;;;5114456;28;20456;-71
2022/03/10 17:58:03;;;;;;;9.07;6.50;;;8.70;37.30;;;;;;5114475;28;20513;-70
2022/03/10 18:00:32;;;;;;;9.47;6.73;;;8.60;36.60;;;;;;5114197;28;20785;-70
2022/03/10 18:02:59;;;;;;;8.50;6.63;;;8.50;36.00;;;;;;5114443;28;20452;-71
2022/03/10 18:05:27;;;;;;;8.27;5.73;;;8.40;36.20;;;;;;5114136;28;20456;-70
2022/03/10 18:07:54;;;;;;;6.63;5.40;;;8.30;36.10;;;;;;5114166;28;20448;-71
2022/03/10 18:10:21;;;;;;;6.73;5.00;;;8.20;35.60;;;;;;5114314;28;20460;-76
2022/03/10 18:12:51;;;;;;;10.30;5.63;;;8.10;35.80;;;;;;5114416;28;20476;-70
2022/03/10 18:15:18;;;;;;;7.13;5.43;;;8.20;35.40;;;;;;5114505;28;20463;-71
2022/03/10 18:17:46;;;;;;;8.20;5.37;;;8.10;35.10;;;;;;5114534;28;20875;-71
2022/03/10 18:20:13;;;;;;;7.23;5.83;;;8.10;34.70;;;;;;5118071;28;20922;-70
2022/03/10 18:22:40;;;;;;;6.90;5.23;;;7.90;34.70;;;;;;5118990;28;20452;-70
2022/03/10 18:25:08;;;;;;;7.50;5.40;;;7.80;35.00;;;;;;5118508;28;20452;-70
2022/03/10 18:27:34;;;;;;;10.87;5.60;;;7.80;35.40;;;;;;5119034;28;20479;-71
2022/03/10 18:30:02;;;;;;;9.67;5.63;;;7.70;35.20;;;;;;5120042;28;20459;-71
2022/03/10 18:32:30;;;;;;;6.53;5.13;;;7.80;35.00;;;;;;5119274;28;20487;-71
2022/03/10 18:34:58;;;;;;;6.40;5.37;;;7.70;34.90;;;;;;5119179;28;20463;-72
2022/03/10 18:37:24;;;;;;;7.43;4.63;;;7.70;35.10;;;;;;5118249;28;20923;-71
2022/03/10 18:39:52;;;;;;;7.07;5.67;;;7.70;35.00;;;;;;5118296;28;20456;-71
2022/03/10 18:42:19;;;;;;;8.30;5.47;;;7.70;35.20;;;;;;5117734;28;20452;-70